createdAt,value
2016-10-16T09:20:35.010Z,170
2016-10-16T09:21:35.671Z,170
2016-10-16T09:22:36.322Z,170
2016-10-16T09:23:36.980Z,175
2016-10-16T09:24:37.673Z,180
2016-10-16T09:25:38.353Z,180
2016-10-16T09:26:38.999Z,180
2016-10-16T09:27:39.688Z,180
2016-10-16T09:28:40.629Z,180
2016-10-16T09:29:41.403Z,180
2016-10-16T09:30:42.128Z,180
2016-10-16T09:31:42.796Z,185
2016-10-16T09:32:43.455Z,190
2016-10-16T09:33:44.120Z,190
2016-10-16T09:34:44.774Z,190
2016-10-16T09:35:45.427Z,185
2016-10-16T09:36:46.200Z,180
2016-10-16T09:37:46.880Z,180
2016-10-16T09:38:47.547Z,180
2016-10-16T09:39:48.219Z,180
2016-10-16T09:40:48.884Z,180
2016-10-16T09:41:49.542Z,185
2016-10-16T09:42:50.226Z,190
2016-10-16T09:43:50.929Z,195
2016-10-16T09:44:51.597Z,205
2016-10-16T09:45:52.261Z,210
2016-10-16T09:46:52.937Z,205
2016-10-16T09:47:53.590Z,200
2016-10-16T09:48:54.252Z,190
2016-10-16T09:49:54.936Z,180
2016-10-16T09:50:55.639Z,185
2016-10-16T09:51:56.296Z,185
2016-10-16T09:52:57.001Z,190
2016-10-16T09:53:57.688Z,195
2016-10-16T09:54:58.378Z,190
2016-10-16T09:55:59.057Z,200
2016-10-16T09:56:59.747Z,210
2016-10-16T09:58:00.428Z,215
2016-10-16T09:59:01.093Z,225
2016-10-16T10:00:01.756Z,230
2016-10-16T10:01:02.446Z,230
2016-10-16T10:02:03.105Z,210
2016-10-16T10:03:03.781Z,190
2016-10-16T10:04:04.456Z,180
2016-10-16T10:05:05.294Z,185
2016-10-16T10:06:06.348Z,205
2016-10-16T10:07:07.369Z,235
2016-10-16T10:08:08.356Z,245
2016-10-16T10:09:09.258Z,225
2016-10-16T10:10:10.006Z,225
2016-10-16T10:11:10.975Z,260
2016-10-16T10:12:11.658Z,265
2016-10-16T10:13:12.386Z,300
2016-10-16T10:14:13.099Z,320
2016-10-16T10:15:13.782Z,320
2016-10-16T10:16:14.493Z,280
2016-10-16T10:17:15.145Z,260
2016-10-16T10:18:15.825Z,240
2016-10-16T10:19:17.907Z,230
2016-10-16T10:20:17.981Z,220
2016-10-16T10:21:18.635Z,210
2016-10-16T10:22:19.300Z,210
2016-10-16T10:23:19.955Z,210
2016-10-16T10:24:20.621Z,200
2016-10-16T10:25:21.283Z,200
2016-10-16T10:26:21.942Z,195
2016-10-16T10:27:22.619Z,185
2016-10-16T10:28:23.306Z,180
2016-10-16T10:29:23.980Z,165
2016-10-16T10:30:24.729Z,160
2016-10-16T16:10:28.867Z,5
2016-10-16T16:11:29.521Z,5
2016-10-16T16:12:30.167Z,5
2016-10-16T16:13:30.831Z,5
2016-10-16T16:14:31.515Z,5
2016-10-16T16:15:32.161Z,5
2016-10-16T16:16:32.806Z,5
2016-10-16T16:17:33.483Z,0
2016-10-16T16:18:34.157Z,0
2016-10-16T16:19:34.824Z,0
2016-10-16T16:20:35.519Z,0
2016-10-16T16:21:36.167Z,0
2016-10-16T16:22:36.819Z,0
2016-10-16T16:23:37.526Z,0
2016-10-16T16:24:38.139Z,0
2016-10-16T16:25:38.796Z,0
2016-10-16T16:26:39.481Z,0
2016-10-16T16:27:40.170Z,0
2016-10-16T16:28:40.860Z,0
2016-10-16T16:29:41.533Z,0
2016-10-16T16:30:42.188Z,0
2016-10-16T16:31:42.857Z,0
2016-10-16T16:32:43.525Z,0
2016-10-16T16:33:44.212Z,0
2016-10-16T16:34:45.072Z,0
2016-10-16T16:35:46.743Z,0
2016-10-16T16:36:47.531Z,0
2016-10-16T16:37:51.164Z,0
2016-10-16T16:38:52.096Z,0
2016-10-16T16:39:52.766Z,0
2016-10-16T16:40:53.437Z,0
2016-10-16T16:41:54.093Z,0
2016-10-16T16:42:54.747Z,0
2016-10-16T16:43:55.454Z,0
2016-10-16T16:44:56.130Z,0
2016-10-16T16:45:57.732Z,0
2016-10-16T16:47:20.308Z,0
2016-10-16T16:48:18.060Z,0
2016-10-16T16:49:18.825Z,0
2016-10-16T16:50:19.824Z,0
2016-10-16T16:51:20.415Z,0
2016-10-16T16:52:21.081Z,0
2016-10-16T16:53:21.751Z,0
2016-10-16T16:54:23.148Z,0
2016-10-16T16:55:23.852Z,0
2016-10-16T16:56:25.584Z,0
2016-10-16T16:57:26.533Z,0
2016-10-16T16:58:27.251Z,0
2016-10-16T16:59:27.931Z,0
2016-10-16T17:00:29.731Z,0
2016-10-16T17:01:31.222Z,0
2016-10-16T17:02:31.941Z,0
2016-10-16T17:03:32.758Z,0
2016-10-16T17:04:34.355Z,0
2016-10-16T17:05:35.027Z,0
2016-10-16T17:06:35.699Z,0
2016-10-16T17:07:36.376Z,0
2016-10-16T17:08:37.059Z,0
2016-10-16T17:09:37.719Z,0
2016-10-16T17:10:38.370Z,0
2016-10-16T17:11:39.268Z,0
2016-10-16T17:12:40.007Z,0
2016-10-16T17:13:40.665Z,0
2016-10-16T17:14:41.362Z,0
2016-10-16T17:15:42.379Z,0
2016-10-16T17:16:43.045Z,0
2016-10-16T17:17:43.720Z,0
2016-10-16T17:18:44.607Z,0
2016-10-16T17:19:45.332Z,0
2016-10-16T17:20:46.182Z,0
2016-10-16T17:21:46.817Z,0
2016-10-16T17:22:47.485Z,0
2016-10-16T17:23:48.322Z,0
2016-10-16T17:24:49.139Z,0
2016-10-16T17:25:49.682Z,0
2016-10-16T17:26:50.350Z,0
2016-10-16T17:27:51.033Z,0
2016-10-16T17:28:51.690Z,0
2016-10-16T17:29:52.397Z,0
2016-10-16T17:30:53.060Z,0
2016-10-16T17:31:53.719Z,0
2016-10-16T17:32:54.379Z,0
2016-10-16T17:33:55.043Z,0
2016-10-16T17:34:55.950Z,0
2016-10-16T17:35:56.619Z,0
2016-10-16T17:36:57.334Z,0
2016-10-16T17:37:58.084Z,0
2016-10-16T17:38:58.772Z,0
2016-10-16T17:39:59.442Z,0
2016-10-16T17:41:00.136Z,0
2016-10-16T17:42:00.791Z,0
2016-10-16T17:43:01.458Z,0
2016-10-16T17:44:02.128Z,0
2016-10-16T17:45:02.879Z,0
2016-10-16T17:46:03.603Z,0
2016-10-16T17:47:04.311Z,0
2016-10-16T17:48:04.983Z,0
2016-10-16T17:49:05.646Z,0
2016-10-16T17:50:06.318Z,0
2016-10-16T17:51:06.997Z,0
2016-10-16T17:52:07.648Z,0
2016-10-16T17:53:08.313Z,0
2016-10-16T17:54:09.014Z,0
2016-10-16T17:55:09.687Z,0
2016-10-16T17:56:10.353Z,0
2016-10-16T17:57:11.010Z,0
2016-10-16T17:58:11.667Z,0
2016-10-16T17:59:12.325Z,0
2016-10-16T18:00:12.998Z,0
2016-10-16T18:01:13.675Z,0
2016-10-16T18:02:14.345Z,0
2016-10-16T18:03:15.011Z,0
2016-10-16T18:04:15.689Z,0
2016-10-16T18:05:16.359Z,0
2016-10-16T18:06:17.036Z,0
2016-10-16T18:07:17.701Z,0
2016-10-16T18:08:18.371Z,0
2016-10-16T18:09:19.046Z,0
2016-10-16T18:10:19.727Z,0
2016-10-16T18:11:20.394Z,0
2016-10-16T18:12:21.062Z,0
2016-10-16T18:13:21.753Z,0
2016-10-16T18:14:22.433Z,0
2016-10-16T18:15:23.104Z,0
2016-10-16T18:16:23.812Z,0
2016-10-16T18:17:24.472Z,0
2016-10-16T18:18:25.129Z,0
2016-10-16T18:19:25.799Z,0
2016-10-16T18:20:26.460Z,0
2016-10-16T18:21:27.138Z,0
2016-10-16T18:22:27.787Z,0
2016-10-16T18:23:28.451Z,0
2016-10-16T18:24:29.126Z,0
2016-10-16T18:25:29.804Z,0
2016-10-16T18:26:30.481Z,0
2016-10-16T18:27:31.179Z,0
2016-10-16T18:28:31.840Z,0
2016-10-16T18:29:32.510Z,0
2016-10-16T18:30:33.189Z,0
2016-10-16T18:31:33.943Z,0
2016-10-16T18:32:34.615Z,0
2016-10-16T18:33:35.281Z,0
2016-10-16T18:34:37.673Z,0
2016-10-16T18:35:38.345Z,0
2016-10-16T18:36:39.159Z,0
2016-10-16T18:37:40.137Z,0
2016-10-16T18:38:40.805Z,0
2016-10-16T18:39:41.455Z,0
2016-10-16T18:40:42.111Z,0
2016-10-16T18:41:42.778Z,0
2016-10-16T18:42:43.436Z,0
2016-10-16T18:43:44.090Z,0
2016-10-16T18:44:44.757Z,0
2016-10-16T18:45:45.422Z,0
2016-10-16T18:46:46.084Z,0
2016-10-16T18:47:46.761Z,0
2016-10-16T18:48:47.445Z,0
2016-10-16T18:49:48.098Z,0
2016-10-16T18:50:48.770Z,0
2016-10-16T18:51:49.443Z,0
2016-10-16T18:52:50.145Z,0
2016-10-16T18:53:50.789Z,0
2016-10-16T18:54:51.462Z,0
2016-10-16T18:55:52.137Z,0
2016-10-16T18:56:53.168Z,0
2016-10-16T18:57:53.843Z,0
2016-10-16T18:58:54.779Z,0
2016-10-16T18:59:55.603Z,0
2016-10-16T19:00:56.267Z,0
2016-10-16T19:01:57.017Z,0
2016-10-16T19:02:57.930Z,0
2016-10-16T19:03:58.739Z,0
2016-10-16T19:04:59.488Z,0
2016-10-16T19:06:00.195Z,0
2016-10-16T19:07:00.867Z,0
2016-10-16T19:08:01.548Z,0
2016-10-16T19:09:02.262Z,0
2016-10-16T19:10:02.935Z,0
2016-10-16T19:11:03.606Z,0
2016-10-16T19:12:04.317Z,0
2016-10-16T19:13:05.023Z,0
2016-10-16T19:14:05.683Z,0
2016-10-16T19:15:06.355Z,0
2016-10-16T19:16:07.023Z,0
2016-10-16T19:17:07.691Z,0
2016-10-16T19:18:08.349Z,0
2016-10-16T19:19:09.013Z,0
2016-10-16T19:20:09.687Z,0
2016-10-16T19:21:10.358Z,0
2016-10-16T19:22:11.028Z,0
2016-10-16T19:23:11.709Z,0
2016-10-16T19:24:12.372Z,0
2016-10-16T19:25:13.028Z,0
2016-10-16T19:26:13.717Z,0
2016-10-16T19:27:14.392Z,0
2016-10-16T19:28:15.167Z,0
2016-10-16T19:29:16.056Z,0
2016-10-16T19:30:16.818Z,0
2016-10-16T19:31:17.541Z,0
2016-10-16T19:32:18.269Z,0
2016-10-16T19:33:19.120Z,0
2016-10-16T19:34:19.879Z,0
2016-10-16T19:35:20.587Z,0
2016-10-16T19:36:21.420Z,0
2016-10-16T19:37:22.081Z,0
2016-10-16T19:38:22.762Z,0
2016-10-16T19:39:23.437Z,0
2016-10-16T19:40:24.227Z,0
2016-10-16T19:41:25.053Z,0
2016-10-16T19:42:25.817Z,0
2016-10-16T19:43:26.553Z,0
2016-10-16T19:44:27.220Z,0
2016-10-16T19:45:27.883Z,0
2016-10-16T19:46:28.747Z,0
2016-10-16T19:47:29.327Z,0
2016-10-16T19:48:30.004Z,0
2016-10-16T19:49:30.679Z,0
2016-10-16T19:50:31.401Z,0
2016-10-16T19:51:32.148Z,0
2016-10-16T19:52:32.865Z,0
2016-10-16T19:53:33.618Z,0
2016-10-16T19:54:34.380Z,0
2016-10-16T19:55:35.060Z,0
2016-10-16T19:56:35.778Z,0
2016-10-16T19:57:36.448Z,0
2016-10-16T19:58:37.112Z,0
2016-10-16T19:59:37.871Z,0
2016-10-16T20:00:38.964Z,0
2016-10-16T20:01:40.874Z,0
2016-10-16T20:02:41.882Z,0
2016-10-16T20:03:42.933Z,0
2016-10-16T20:04:43.603Z,0
2016-10-16T20:05:44.546Z,0
2016-10-16T20:06:45.310Z,0
2016-10-16T20:07:46.003Z,0
2016-10-16T20:08:46.788Z,0
2016-10-16T20:09:47.540Z,0
2016-10-16T20:10:48.216Z,0
2016-10-16T20:11:49.160Z,0
2016-10-16T20:12:50.091Z,0
2016-10-16T20:13:50.804Z,0
2016-10-16T20:14:51.699Z,0
2016-10-16T20:15:52.399Z,0
2016-10-16T20:16:53.096Z,0
2016-10-16T20:17:54.002Z,0
2016-10-16T20:18:54.686Z,0
2016-10-16T20:19:55.364Z,0
2016-10-16T20:20:56.183Z,0
2016-10-16T20:21:57.233Z,0
2016-10-16T20:22:57.897Z,0
2016-10-16T20:23:58.610Z,0
2016-10-16T20:24:59.347Z,0
2016-10-16T20:26:00.033Z,0
2016-10-16T20:27:00.860Z,0
2016-10-16T20:28:01.503Z,0
2016-10-16T20:29:02.328Z,0
2016-10-16T20:30:03.041Z,0
2016-10-16T20:31:03.807Z,0
2016-10-16T20:32:04.715Z,0
2016-10-16T20:33:05.542Z,0
2016-10-16T20:34:06.521Z,0
2016-10-16T20:35:07.550Z,0
2016-10-16T20:36:08.174Z,0
2016-10-16T20:37:09.092Z,0
2016-10-16T20:38:09.803Z,0
2016-10-16T20:39:10.467Z,0
2016-10-16T20:40:11.128Z,0
2016-10-16T20:41:11.850Z,0
2016-10-16T20:42:12.537Z,0
2016-10-16T20:43:13.198Z,0
2016-10-16T20:44:13.892Z,0
2016-10-16T20:45:14.564Z,0
2016-10-16T20:46:15.234Z,0
2016-10-16T20:47:15.899Z,0
2016-10-16T20:48:16.568Z,0
2016-10-16T20:49:17.257Z,0
2016-10-16T20:50:17.934Z,0
2016-10-16T20:51:18.612Z,0
2016-10-16T20:52:19.331Z,0
2016-10-16T20:53:20.034Z,0
2016-10-16T20:54:20.694Z,0
2016-10-16T20:55:22.633Z,0
2016-10-16T20:56:23.238Z,0
2016-10-16T20:57:24.115Z,0
2016-10-16T20:58:25.002Z,0
2016-10-16T20:59:25.695Z,0
2016-10-16T21:00:26.387Z,0
2016-10-16T21:01:27.064Z,0
2016-10-16T21:02:27.738Z,0
2016-10-16T21:03:28.403Z,0
2016-10-16T21:04:29.068Z,0
2016-10-16T21:05:29.743Z,0
2016-10-16T21:06:30.457Z,0
2016-10-16T21:07:31.117Z,0
2016-10-16T21:08:31.777Z,0
2016-10-16T21:09:32.469Z,0
2016-10-16T21:10:33.195Z,0
2016-10-16T21:11:34.043Z,0
2016-10-16T21:12:34.731Z,0
2016-10-16T21:13:35.399Z,0
2016-10-16T21:14:36.070Z,0
2016-10-16T21:15:36.738Z,0
2016-10-16T21:16:38.138Z,0
